Terminal Aerodrome Forecast
Issued by NWS Paducah, KY

Home | Current Version | Previous Version | Text Only | Print | Product List | Glossary On
Versions: 1 2 3 4 5 6 7 8 9 10 11 12 13 14 15 16 17 18
325
FTUS43 KPAH 162340
TAFPAH
TAF
KPAH 162340Z 1700/1724 17009KT 5SM -SHRA BR VCTS BKN035CB
      TEMPO 1701/1705 P6SM NSW SCT035 BKN050
     FM170500 22011KT 4SM BR OVC012
     FM170900 25010KT P6SM BKN025
     FM171500 26010KT P6SM SCT025 BKN070=

USA.gov is the U.S. government's official web portal to all federal, state and local government web resources and services.